Kezdőlap
METAR-TAF:

METAR-TAF

Repülőterek :

Saratoga, Wyoming, Amerikai Egyesült Államok

földrajzi szélesség: 41-26-41N, földrajzi hosszúság: 106-49-25W, magasság: 2137 m

Jelenlegi meteorológiai megfigyelések

A jelentés 15 perccel ezelõtt készült, 06:15 UTC
Délkeleti szél 11 kt
Hőmérséklet 8°C
Páratartalom 34%
Légköri nyomás 1018 hPa
Látótávolság: 16.1 km
Derült ég

METAR: KSAA 130615Z AUTO 14011KT 10SM CLR 08/M07 A3006 RMK AO2

Idő: 00:30 (06:30 UTC)


TAF: hiányzik

Meteorológiai megfigyelések és előrejelzések több, mint 4000 repülőtéren (METAR és TAF jelentéseket).

A térképen piros és sárga pontok jelzik az elérhető meteorológiai állomásokat.

Mozgassa az egeret a pont fölött, hogy megjelenjen az állomás neve.

Azután kattintson az időjárási megfigyelések és előrejelzések megtekintéséhez.

A térkép megváltoztatása: kattintson a fekete keresztel jelölt zöld gombra ráközelítéshez, a vonallal jelölt zöld gombra távolításhoz, vagy a zöld nyilakra a szomszédos térképek eléréséhez.


METAR-TAF: